createdAt,value
2023-05-10T00:01:25.363Z,101092.34
2023-05-10T00:03:53.311Z,101090.88
2023-05-10T00:06:21.505Z,101087.84
2023-05-10T00:08:49.367Z,101083.30
2023-05-10T00:11:17.230Z,101080.60
2023-05-10T00:13:45.103Z,101081.86
2023-05-10T00:16:14.327Z,101078.21
2023-05-10T00:18:43.083Z,101076.92
2023-05-10T00:21:11.047Z,101074.46
2023-05-10T00:23:39.840Z,101073.14
2023-05-10T00:26:07.704Z,101072.17
2023-05-10T00:28:35.672Z,101069.71
2023-05-10T00:31:04.054Z,101063.38
2023-05-10T00:33:32.019Z,101067.36
2023-05-10T00:35:59.876Z,101067.09
2023-05-10T00:38:27.672Z,101068.35
2023-05-10T00:40:55.816Z,101070.13
2023-05-10T00:43:23.689Z,101072.10
2023-05-10T00:45:51.785Z,101069.63
2023-05-10T00:48:20.098Z,101070.04
2023-05-10T00:50:48.309Z,101065.39
2023-05-10T00:53:16.754Z,101065.11
2023-05-10T00:55:44.856Z,101060.02
2023-05-10T00:58:13.385Z,101058.93
2023-05-10T01:00:43.082Z,101055.70
2023-05-10T01:03:12.676Z,101057.15
2023-05-10T01:05:40.724Z,101053.48
2023-05-10T01:08:09.817Z,101049.48
2023-05-10T01:10:37.790Z,101047.71
2023-05-10T01:13:06.052Z,101047.88
2023-05-10T01:15:34.079Z,101048.92
2023-05-10T01:18:04.335Z,101047.60
2023-05-10T01:20:41.748Z,101046.05
2023-05-10T01:23:31.215Z,101046.34
2023-05-10T01:26:57.241Z,101044.93
2023-05-10T01:30:05.076Z,101045.82
2023-05-10T01:33:04.585Z,101045.97
2023-05-10T01:35:49.007Z,101046.35
2023-05-10T01:38:43.648Z,101046.59
2023-05-10T01:41:36.241Z,101048.34
2023-05-10T01:44:18.236Z,101044.67
2023-05-10T01:46:59.272Z,101045.11
2023-05-10T01:49:32.501Z,101043.25
2023-05-10T01:52:17.062Z,101042.70
2023-05-10T01:54:51.630Z,101042.92
2023-05-10T01:57:22.721Z,101040.45
2023-05-10T01:59:52.428Z,101039.17
2023-05-10T02:02:22.454Z,101038.18
2023-05-10T02:04:53.376Z,101037.36
2023-05-10T02:07:22.991Z,101033.36
2023-05-10T02:09:52.055Z,101033.46
2023-05-10T02:12:21.391Z,101031.35
2023-05-10T02:14:52.023Z,101031.42
2023-05-10T02:17:21.031Z,101030.50
2023-05-10T02:19:49.515Z,101027.86
2023-05-10T02:22:18.371Z,101024.38
2023-05-10T02:24:48.493Z,101024.13
2023-05-10T02:27:18.404Z,101025.20
2023-05-10T02:29:47.808Z,101024.39
2023-05-10T02:32:18.149Z,101023.73
2023-05-10T02:34:47.881Z,101021.77
2023-05-10T02:37:17.866Z,101016.42
2023-05-10T02:39:47.973Z,101012.42
2023-05-10T02:42:21.305Z,101013.04
2023-05-10T02:44:51.906Z,101010.83
2023-05-10T02:47:20.760Z,101011.27
2023-05-10T02:49:48.869Z,101014.77
2023-05-10T02:52:23.789Z,101013.37
2023-05-10T02:54:56.375Z,101016.50
2023-05-10T02:57:28.858Z,101018.14
2023-05-10T02:59:57.014Z,101014.20
2023-05-10T03:02:25.109Z,101019.06
2023-05-10T03:04:53.195Z,101024.92
2023-05-10T03:07:22.449Z,101028.19
2023-05-10T03:09:51.044Z,101027.34
2023-05-10T03:12:47.490Z,101028.73
2023-05-10T03:15:20.653Z,101030.69
2023-05-10T03:18:33.278Z,101028.02
2023-05-10T03:21:07.183Z,101033.94
2023-05-10T03:23:41.500Z,101033.43
2023-05-10T03:26:09.933Z,101032.80
2023-05-10T03:28:38.628Z,101028.96
2023-05-10T03:31:08.587Z,101027.16
2023-05-10T03:33:36.447Z,101024.88
2023-05-10T03:36:04.961Z,101021.73
2023-05-10T03:38:32.783Z,101019.89
2023-05-10T03:41:00.856Z,101019.43
2023-05-10T03:43:28.687Z,101019.94
2023-05-10T03:45:56.432Z,101025.15
2023-05-10T03:48:24.139Z,101022.83
2023-05-10T03:50:52.054Z,101021.23
2023-05-10T03:53:19.824Z,101020.75
2023-05-10T03:55:47.591Z,101020.72
2023-05-10T03:58:15.537Z,101020.46
2023-05-10T04:00:46.408Z,101020.62
2023-05-10T04:03:14.483Z,101023.00
2023-05-10T04:05:42.430Z,101017.89
2023-05-10T04:08:10.729Z,101019.27
2023-05-10T04:10:38.789Z,101018.98
2023-05-10T04:13:07.008Z,101020.00
2023-05-10T04:15:34.802Z,101018.92
2023-05-10T04:18:02.588Z,101023.39
2023-05-10T04:20:30.551Z,101023.94
2023-05-10T04:22:58.298Z,101024.41
2023-05-10T04:25:26.062Z,101021.77
2023-05-10T04:27:53.788Z,101021.95
2023-05-10T04:30:21.692Z,101021.88
2023-05-10T04:32:49.562Z,101024.98
2023-05-10T04:35:17.552Z,101024.35
2023-05-10T04:37:45.383Z,101026.39
2023-05-10T04:40:13.581Z,101025.44
2023-05-10T04:42:44.816Z,101025.64
2023-05-10T04:45:12.681Z,101029.73
2023-05-10T04:47:40.579Z,101026.21
2023-05-10T04:50:09.251Z,101024.42
2023-05-10T04:52:37.650Z,101028.98
2023-05-10T04:55:06.025Z,101026.34
2023-05-10T04:57:33.753Z,101024.20
2023-05-10T05:00:01.616Z,101026.80
2023-05-10T05:02:29.430Z,101026.55
2023-05-10T05:04:59.001Z,101020.50
2023-05-10T05:07:26.954Z,101018.35
2023-05-10T05:09:54.705Z,101019.71
2023-05-10T05:12:22.987Z,101021.60
2023-05-10T05:14:50.746Z,101021.14
2023-05-10T05:17:18.601Z,101021.67
2023-05-10T05:19:46.325Z,101020.33
2023-05-10T05:22:14.038Z,101022.56
2023-05-10T05:24:42.673Z,101019.18
2023-05-10T05:27:10.475Z,101019.59
2023-05-10T05:29:38.752Z,101020.83
2023-05-10T05:32:06.945Z,101018.02
2023-05-10T05:34:34.892Z,101021.46
2023-05-10T05:37:02.794Z,101020.16
2023-05-10T05:39:30.522Z,101019.52
2023-05-10T05:41:59.436Z,101015.33
2023-05-10T05:44:28.934Z,101014.36
2023-05-10T05:46:56.985Z,101012.02
2023-05-10T05:49:24.744Z,101009.38
2023-05-10T05:51:52.466Z,101005.16
2023-05-10T05:54:20.487Z,101007.45
2023-05-10T05:56:48.199Z,101007.34
2023-05-10T05:59:16.008Z,101004.85
2023-05-10T06:01:43.757Z,101004.73
2023-05-10T06:04:11.565Z,101012.26
2023-05-10T06:06:39.429Z,101010.77
2023-05-10T06:09:07.272Z,101015.91
2023-05-10T06:11:35.592Z,101015.12
2023-05-10T06:14:06.020Z,101016.48
2023-05-10T06:16:34.525Z,101015.13
2023-05-10T06:19:03.272Z,101017.17
2023-05-10T06:21:31.419Z,101018.19
2023-05-10T06:24:01.281Z,101018.35
2023-05-10T06:26:29.784Z,101015.10
2023-05-10T06:28:57.640Z,101010.81
2023-05-10T06:31:25.434Z,101014.34
2023-05-10T06:33:55.297Z,101010.02
2023-05-10T06:36:25.812Z,101010.13
2023-05-10T06:38:53.737Z,101008.84
2023-05-10T06:41:24.621Z,101008.61
2023-05-10T06:43:52.754Z,101007.33
2023-05-10T06:46:20.535Z,101008.10
2023-05-10T06:48:48.405Z,101013.80
2023-05-10T06:51:16.116Z,101009.75
2023-05-10T06:53:43.855Z,101007.94
2023-05-10T06:56:11.658Z,101007.66
2023-05-10T06:58:39.480Z,101009.75
2023-05-10T07:01:07.511Z,101003.09
2023-05-10T07:03:39.033Z,100999.02
2023-05-10T07:06:13.267Z,101001.41
2023-05-10T07:08:43.994Z,101001.76
2023-05-10T07:11:11.873Z,101001.25
2023-05-10T07:13:42.342Z,100997.46
2023-05-10T07:16:10.186Z,101004.47
2023-05-10T07:18:38.253Z,100997.61
2023-05-10T07:21:06.056Z,100996.90
2023-05-10T07:23:34.358Z,100996.53
2023-05-10T07:26:03.305Z,100995.79
2023-05-10T07:28:31.175Z,101004.17
2023-05-10T07:30:58.963Z,101003.30
2023-05-10T07:33:26.771Z,101007.92
2023-05-10T07:35:54.611Z,101005.16
2023-05-10T07:38:22.477Z,101007.35
2023-05-10T07:40:50.198Z,101002.31
2023-05-10T07:43:18.015Z,100998.99
2023-05-10T07:45:46.121Z,101004.44
2023-05-10T07:48:13.930Z,101000.44
2023-05-10T07:50:41.794Z,100996.95
2023-05-10T07:53:10.482Z,100992.61
2023-05-10T07:55:38.426Z,100996.16
2023-05-10T07:58:06.220Z,100992.66
2023-05-10T08:00:34.099Z,100994.14
2023-05-10T08:03:02.041Z,100991.87
2023-05-10T08:05:29.917Z,100988.75
2023-05-10T08:07:57.690Z,100986.10
2023-05-10T08:10:25.628Z,100987.93
2023-05-10T08:12:53.512Z,100990.61
2023-05-10T08:15:21.587Z,100990.20
2023-05-10T08:17:49.818Z,100996.52
2023-05-10T08:20:19.998Z,100991.45
2023-05-10T08:22:48.965Z,100989.79
2023-05-10T08:25:18.514Z,100982.29
2023-05-10T08:27:46.846Z,100984.09
2023-05-10T08:30:15.113Z,100992.20
2023-05-10T08:32:43.844Z,100979.42
2023-05-10T08:35:11.524Z,100982.57
2023-05-10T08:37:39.259Z,100985.49
2023-05-10T08:40:08.639Z,100985.30
2023-05-10T08:42:38.974Z,100985.93
2023-05-10T08:45:08.633Z,100988.77
2023-05-10T08:47:39.220Z,100985.25
2023-05-10T08:50:08.169Z,100985.19
2023-05-10T08:52:40.221Z,100986.66
2023-05-10T08:55:08.646Z,100986.07
2023-05-10T08:57:37.534Z,100983.31
2023-05-10T09:00:06.696Z,100973.65
2023-05-10T09:02:34.661Z,100971.98
2023-05-10T09:05:03.882Z,100976.20
2023-05-10T09:07:34.759Z,100968.97
2023-05-10T09:10:06.865Z,100974.20
2023-05-10T09:12:34.509Z,100962.48
2023-05-10T09:15:03.030Z,100963.92
2023-05-10T09:17:31.261Z,100963.02
2023-05-10T09:20:05.221Z,100974.05
2023-05-10T09:22:33.067Z,100966.05
2023-05-10T09:25:14.740Z,100964.05
2023-05-10T09:27:46.450Z,100963.66
2023-05-10T09:30:19.332Z,100966.69
2023-05-10T09:32:49.449Z,100961.11
2023-05-10T09:35:20.264Z,100963.67
2023-05-10T09:37:50.493Z,100967.86
2023-05-10T09:40:21.094Z,100955.29
2023-05-10T09:42:59.101Z,100965.50
2023-05-10T09:45:31.964Z,100969.18
2023-05-10T09:48:01.808Z,100956.56
2023-05-10T09:50:31.198Z,100960.20
2023-05-10T09:53:00.765Z,100961.86
2023-05-10T09:55:42.472Z,100961.03
2023-05-10T09:58:12.940Z,100957.05
2023-05-10T10:00:42.725Z,100955.20
2023-05-10T10:03:21.761Z,100953.65
2023-05-10T10:05:50.301Z,100954.78
2023-05-10T10:08:18.401Z,100946.59
2023-05-10T10:10:47.650Z,100952.39
2023-05-10T10:13:16.534Z,100936.81
2023-05-10T10:15:48.694Z,100945.93
2023-05-10T10:18:16.731Z,100935.69
2023-05-10T10:20:44.905Z,100933.00
2023-05-10T10:23:12.943Z,100933.66
2023-05-10T10:25:41.534Z,100936.85
2023-05-10T10:28:22.855Z,100933.73
2023-05-10T10:30:52.959Z,100928.44
2023-05-10T10:33:58.896Z,100932.05
2023-05-10T10:36:28.327Z,100929.21
2023-05-10T10:39:00.748Z,100928.48
2023-05-10T10:41:31.522Z,100920.88
2023-05-10T10:44:27.483Z,100924.85
2023-05-10T10:47:15.483Z,100926.70
2023-05-10T10:49:49.490Z,100923.30
2023-05-10T10:52:34.117Z,100922.73
2023-05-10T10:55:06.224Z,100916.25
2023-05-10T10:57:43.841Z,100910.88
2023-05-10T11:00:32.400Z,100907.65
2023-05-10T11:03:14.612Z,100912.81
2023-05-10T11:05:50.761Z,100910.47
2023-05-10T11:08:47.150Z,100896.90
2023-05-10T11:11:18.656Z,100898.60
2023-05-10T11:13:51.630Z,100904.79
2023-05-10T11:16:28.472Z,100903.24
2023-05-10T11:19:04.838Z,100904.41
2023-05-10T11:21:33.765Z,100901.26
2023-05-10T11:24:06.997Z,100905.98
2023-05-10T11:26:36.274Z,100905.03
2023-05-10T11:29:05.999Z,100897.93
2023-05-10T11:31:34.194Z,100898.44
2023-05-10T11:34:02.921Z,100888.76
2023-05-10T11:36:37.592Z,100887.46
2023-05-10T11:39:06.710Z,100891.16
2023-05-10T11:41:34.462Z,100880.84
2023-05-10T11:44:02.800Z,100890.37
2023-05-10T11:46:30.757Z,100888.09
2023-05-10T11:49:02.865Z,100881.78
2023-05-10T11:51:34.101Z,100879.14
2023-05-10T11:54:01.789Z,100884.77
2023-05-10T11:56:29.454Z,100885.08
2023-05-10T11:58:58.888Z,100882.30
2023-05-10T12:01:27.553Z,100881.31
2023-05-10T12:04:01.639Z,100885.14
2023-05-10T12:06:36.955Z,100885.34
2023-05-10T12:09:09.208Z,100881.00
2023-05-10T12:11:43.999Z,100874.13
2023-05-10T12:14:12.359Z,100879.08
2023-05-10T12:16:40.187Z,100876.05
2023-05-10T12:19:08.051Z,100874.48
2023-05-10T12:21:35.856Z,100873.71
2023-05-10T12:24:05.973Z,100875.83
2023-05-10T12:26:33.890Z,100873.79
2023-05-10T12:29:21.360Z,100876.21
2023-05-10T12:31:57.077Z,100872.58
2023-05-10T12:34:28.381Z,100874.23
2023-05-10T12:36:56.762Z,100867.55
2023-05-10T12:39:25.424Z,100875.60
2023-05-10T12:41:53.690Z,100875.98
2023-05-10T12:44:21.473Z,100866.55
2023-05-10T12:46:49.224Z,100865.38
2023-05-10T12:49:17.796Z,100867.85
2023-05-10T12:51:45.446Z,100864.57
2023-05-10T12:54:13.242Z,100862.11
2023-05-10T12:56:41.956Z,100854.25
2023-05-10T12:59:09.794Z,100866.67
2023-05-10T13:01:37.528Z,100863.38
2023-05-10T13:04:05.538Z,100857.23
2023-05-10T13:06:33.730Z,100853.51
2023-05-10T13:09:01.606Z,100857.08
2023-05-10T13:11:29.405Z,100850.61
2023-05-10T13:13:57.185Z,100847.25
2023-05-10T13:16:24.917Z,100841.96
2023-05-10T13:18:52.728Z,100850.48
2023-05-10T13:21:20.492Z,100849.67
2023-05-10T13:23:48.406Z,100846.33
2023-05-10T13:26:16.218Z,100849.35
2023-05-10T13:28:44.707Z,100852.08
2023-05-10T13:31:12.767Z,100852.29
2023-05-10T13:33:40.940Z,100844.20
2023-05-10T13:36:08.924Z,100835.04
2023-05-10T13:38:37.149Z,100837.40
2023-05-10T13:41:05.036Z,100839.83
2023-05-10T13:43:32.766Z,100832.91
2023-05-10T13:46:00.538Z,100835.31
2023-05-10T13:48:28.972Z,100830.94
2023-05-10T13:50:57.218Z,100825.80
2023-05-10T13:53:24.888Z,100830.78
2023-05-10T13:55:52.816Z,100824.77
2023-05-10T13:58:20.516Z,100821.47
2023-05-10T14:00:49.146Z,100821.00
2023-05-10T14:03:17.581Z,100820.59
2023-05-10T14:05:46.691Z,100819.27
2023-05-10T14:08:15.872Z,100821.22
2023-05-10T14:10:44.409Z,100816.50
2023-05-10T14:13:13.415Z,100810.95
2023-05-10T14:15:41.835Z,100816.21
2023-05-10T14:18:09.679Z,100811.70
2023-05-10T14:20:37.934Z,100807.13
2023-05-10T14:23:05.960Z,100810.33
2023-05-10T14:25:34.427Z,100809.59
2023-05-10T14:28:02.744Z,100805.77
2023-05-10T14:30:31.926Z,100809.70
2023-05-10T14:33:02.393Z,100804.96
2023-05-10T14:35:32.239Z,100804.09
2023-05-10T14:38:00.215Z,100801.02
2023-05-10T14:40:28.716Z,100798.80
2023-05-10T14:42:57.400Z,100798.47
2023-05-10T14:45:25.655Z,100799.77
2023-05-10T14:47:53.753Z,100798.48
2023-05-10T14:50:35.754Z,100806.11
2023-05-10T14:53:05.328Z,100801.16
2023-05-10T14:55:33.807Z,100801.80
2023-05-10T14:58:03.076Z,100798.23
2023-05-10T15:00:31.712Z,100798.45
2023-05-10T15:03:00.960Z,100804.47
2023-05-10T15:05:32.346Z,100803.22
2023-05-10T15:08:01.337Z,100799.61
2023-05-10T15:10:29.633Z,100796.67
2023-05-10T15:12:57.653Z,100798.43
2023-05-10T15:15:25.916Z,100803.16
2023-05-10T15:17:53.871Z,100802.70
2023-05-10T15:20:22.277Z,100797.17
2023-05-10T15:22:54.705Z,100796.95
2023-05-10T15:25:24.654Z,100802.63
2023-05-10T15:27:52.408Z,100800.76
2023-05-10T15:30:20.311Z,100801.76
2023-05-10T15:32:48.822Z,100796.56
2023-05-10T15:35:18.046Z,100794.63
2023-05-10T15:37:48.476Z,100792.66
2023-05-10T15:40:16.754Z,100789.99
2023-05-10T15:42:44.616Z,100786.89
2023-05-10T15:45:12.916Z,100790.29
2023-05-10T15:47:40.748Z,100794.24
2023-05-10T15:50:10.045Z,100790.13
2023-05-10T15:52:38.130Z,100788.74
2023-05-10T15:55:12.955Z,100789.92
2023-05-10T15:57:42.402Z,100783.17
2023-05-10T16:00:12.111Z,100786.08
2023-05-10T16:02:41.021Z,100786.73
2023-05-10T16:05:09.891Z,100788.25
2023-05-10T16:07:37.634Z,100783.95
2023-05-10T16:10:07.063Z,100786.98
2023-05-10T16:12:34.880Z,100782.75
2023-05-10T16:15:02.751Z,100785.13
2023-05-10T16:17:30.417Z,100787.31
2023-05-10T16:19:58.258Z,100789.75
2023-05-10T16:22:29.266Z,100790.48
2023-05-10T16:24:58.051Z,100788.12
2023-05-10T16:27:28.619Z,100783.09
2023-05-10T16:29:56.549Z,100790.19
2023-05-10T16:32:24.837Z,100791.61
2023-05-10T16:34:54.002Z,100787.50
2023-05-10T16:37:22.100Z,100796.54
2023-05-10T16:39:49.775Z,100794.41
2023-05-10T16:42:17.614Z,100796.81
2023-05-10T16:44:46.305Z,100797.52
2023-05-10T16:47:17.532Z,100797.95
2023-05-10T16:49:45.752Z,100795.66
2023-05-10T16:52:14.127Z,100796.44
2023-05-10T16:54:42.496Z,100799.06
2023-05-10T16:57:10.311Z,100801.15
2023-05-10T16:59:38.412Z,100803.73
2023-05-10T17:02:07.037Z,100800.63
2023-05-10T17:04:35.159Z,100806.39
2023-05-10T17:07:03.657Z,100804.52
2023-05-10T17:09:31.464Z,100806.88
2023-05-10T17:11:59.208Z,100813.27
2023-05-10T17:14:27.347Z,100810.85
2023-05-10T17:16:55.790Z,100816.42
2023-05-10T17:19:26.275Z,100817.22
2023-05-10T17:21:57.102Z,100819.55
2023-05-10T17:24:25.237Z,100821.51
2023-05-10T17:26:53.979Z,100824.45
2023-05-10T17:29:22.628Z,100828.09
2023-05-10T17:31:50.589Z,100826.72
2023-05-10T17:34:18.783Z,100829.97
2023-05-10T17:36:47.830Z,100834.73
2023-05-10T17:39:16.122Z,100836.35
2023-05-10T17:41:44.654Z,100835.86
2023-05-10T17:44:13.586Z,100838.00
2023-05-10T17:46:41.947Z,100838.84
2023-05-10T17:49:10.824Z,100843.68
2023-05-10T17:51:39.513Z,100844.44
2023-05-10T17:54:07.598Z,100843.94
2023-05-10T17:56:36.153Z,100844.28
2023-05-10T17:59:04.150Z,100846.14
2023-05-10T18:01:32.603Z,100849.69
2023-05-10T18:04:00.598Z,100852.75
2023-05-10T18:06:28.503Z,100855.63
2023-05-10T18:08:56.447Z,100854.91
2023-05-10T18:11:24.149Z,100859.84
2023-05-10T18:13:51.926Z,100859.45
2023-05-10T18:16:19.715Z,100861.79
2023-05-10T18:18:47.592Z,100865.34
2023-05-10T18:21:15.357Z,100867.82
2023-05-10T18:23:43.265Z,100867.88
2023-05-10T18:26:11.345Z,100868.64
2023-05-10T18:28:39.175Z,100871.81
2023-05-10T18:31:07.421Z,100873.93
2023-05-10T18:33:35.247Z,100875.87
2023-05-10T18:36:03.066Z,100876.09
2023-05-10T18:38:31.189Z,100880.27
2023-05-10T18:40:59.081Z,100882.36
2023-05-10T18:43:26.958Z,100889.25
2023-05-10T18:45:54.776Z,100892.04
2023-05-10T18:48:22.556Z,100896.88
2023-05-10T18:50:50.487Z,100894.16
2023-05-10T18:53:18.177Z,100897.09
2023-05-10T18:55:46.670Z,100899.86
2023-05-10T18:58:14.687Z,100898.70
2023-05-10T19:00:43.352Z,100902.66
2023-05-10T19:03:11.336Z,100903.53
2023-05-10T19:05:39.180Z,100909.20
2023-05-10T19:08:08.177Z,100912.11
2023-05-10T19:10:36.154Z,100908.37
2023-05-10T19:13:03.988Z,100906.66
2023-05-10T19:15:33.098Z,100909.06
2023-05-10T19:18:01.666Z,100905.83
2023-05-10T19:20:29.535Z,100908.39
2023-05-10T19:23:09.751Z,100909.93
2023-05-10T19:25:39.557Z,100908.05
2023-05-10T19:28:08.157Z,100911.98
2023-05-10T19:30:36.722Z,100912.65
2023-05-10T19:33:05.938Z,100909.06
2023-05-10T19:35:33.838Z,100910.22
2023-05-10T19:38:01.741Z,100908.66
2023-05-10T19:40:29.741Z,100910.52
2023-05-10T19:42:57.525Z,100911.55
2023-05-10T19:45:25.218Z,100910.50
2023-05-10T19:47:53.369Z,100916.80
2023-05-10T19:50:21.097Z,100916.96
2023-05-10T19:52:49.626Z,100917.80
2023-05-10T19:55:27.481Z,100919.85
2023-05-10T19:57:55.518Z,100918.47
2023-05-10T20:00:24.859Z,100919.30
2023-05-10T20:02:53.374Z,100920.83
2023-05-10T20:05:22.128Z,100925.76
2023-05-10T20:07:50.525Z,100924.21
2023-05-10T20:10:18.914Z,100927.61
2023-05-10T20:12:53.478Z,100928.45
2023-05-10T20:15:23.314Z,100931.01
2023-05-10T20:17:53.320Z,100926.91
2023-05-10T20:20:21.898Z,100929.11
2023-05-10T20:22:50.099Z,100932.68
2023-05-10T20:25:18.919Z,100934.02
2023-05-10T20:27:47.057Z,100930.59
2023-05-10T20:30:15.085Z,100929.02
2023-05-10T20:32:43.814Z,100929.48
2023-05-10T20:35:11.998Z,100927.93
2023-05-10T20:37:40.284Z,100929.29
2023-05-10T20:40:11.150Z,100928.58
2023-05-10T20:42:39.003Z,100928.05
2023-05-10T20:45:07.780Z,100927.34
2023-05-10T20:47:36.274Z,100931.07
2023-05-10T20:50:04.646Z,100931.89
2023-05-10T20:52:32.512Z,100933.59
2023-05-10T20:55:00.381Z,100938.88
2023-05-10T20:57:28.115Z,100944.30
2023-05-10T20:59:55.952Z,100945.13
2023-05-10T21:02:23.871Z,100947.81
2023-05-10T21:04:51.953Z,100946.61
2023-05-10T21:07:19.838Z,100949.67
2023-05-10T21:09:47.475Z,100944.36
2023-05-10T21:12:15.465Z,100947.03
2023-05-10T21:14:44.410Z,100949.73
2023-05-10T21:17:13.208Z,100952.44
2023-05-10T21:19:43.972Z,100953.26
2023-05-10T21:22:12.236Z,100950.48
2023-05-10T21:24:40.332Z,100948.43
2023-05-10T21:27:09.128Z,100946.17
2023-05-10T21:29:37.867Z,100944.42
2023-05-10T21:32:06.507Z,100946.45
2023-05-10T21:34:34.780Z,100945.71
2023-05-10T21:37:02.984Z,100949.95
2023-05-10T21:39:31.147Z,100948.38
2023-05-10T21:42:00.465Z,100952.95
2023-05-10T21:44:28.782Z,100952.24
2023-05-10T21:46:56.709Z,100952.74
2023-05-10T21:49:25.136Z,100955.95
2023-05-10T21:51:53.492Z,100957.11
2023-05-10T21:54:23.041Z,100957.95
2023-05-10T21:56:50.732Z,100961.00
2023-05-10T21:59:18.640Z,100962.70
2023-05-10T22:01:46.755Z,100962.48
2023-05-10T22:04:15.225Z,100965.52
2023-05-10T22:06:43.975Z,100966.69
2023-05-10T22:09:12.060Z,100969.20
2023-05-10T22:11:40.485Z,100968.86
2023-05-10T22:14:08.684Z,100968.83
2023-05-10T22:16:36.469Z,100970.17
2023-05-10T22:19:04.537Z,100969.29
2023-05-10T22:21:33.327Z,100970.78
2023-05-10T22:24:01.770Z,100967.85
2023-05-10T22:26:29.945Z,100968.16
2023-05-10T22:28:58.629Z,100969.84
2023-05-10T22:31:27.199Z,100975.77
2023-05-10T22:33:55.473Z,100974.73
2023-05-10T22:36:23.807Z,100977.76
2023-05-10T22:38:51.950Z,100979.08
2023-05-10T22:41:20.148Z,100984.86
2023-05-10T22:43:48.564Z,100986.15
2023-05-10T22:46:16.609Z,100989.19
2023-05-10T22:48:44.654Z,100988.96
2023-05-10T22:51:13.447Z,100988.24
2023-05-10T22:53:41.655Z,100989.89
2023-05-10T22:56:10.090Z,100987.45
2023-05-10T22:58:38.256Z,100990.82
2023-05-10T23:01:06.530Z,100993.83
2023-05-10T23:03:34.739Z,100994.63
2023-05-10T23:06:03.116Z,100998.50
2023-05-10T23:08:31.190Z,100997.47
2023-05-10T23:10:59.325Z,100999.80
2023-05-10T23:13:27.913Z,100995.84
2023-05-10T23:15:56.317Z,100997.85
2023-05-10T23:18:24.542Z,100993.08
2023-05-10T23:20:53.419Z,100993.21
2023-05-10T23:23:22.759Z,100993.02
2023-05-10T23:25:51.834Z,100992.45
2023-05-10T23:28:20.130Z,100993.92
2023-05-10T23:30:48.265Z,100996.22
2023-05-10T23:33:16.121Z,100992.61
2023-05-10T23:35:44.129Z,100994.98
2023-05-10T23:38:12.515Z,100991.53
2023-05-10T23:40:40.653Z,100993.36
2023-05-10T23:43:08.782Z,100994.16
2023-05-10T23:45:36.902Z,100993.64
2023-05-10T23:48:04.887Z,100992.76
2023-05-10T23:50:33.009Z,100993.06
2023-05-10T23:53:02.231Z,100990.83
2023-05-10T23:55:30.550Z,100993.16
2023-05-10T23:57:58.850Z,100991.59
